sensor_id;sensor_type;location;lat;lon;timestamp;P1;durP1;ratioP1;P2;durP2;ratioP2
76377;SDS011;65200;49.500;8.654;2023-06-19T00:01:26;7.13;;;4.55;;
76377;SDS011;65200;49.500;8.654;2023-06-19T00:03:53;7.97;;;4.55;;
76377;SDS011;65200;49.500;8.654;2023-06-19T00:06:19;7.45;;;5.07;;
76377;SDS011;65200;49.500;8.654;2023-06-19T00:08:45;7.15;;;5.35;;
76377;SDS011;65200;49.500;8.654;2023-06-19T00:11:13;5.35;;;4.80;;
76377;SDS011;65200;49.500;8.654;2023-06-19T00:13:40;5.18;;;4.68;;
76377;SDS011;65200;49.500;8.654;2023-06-19T00:16:06;6.07;;;4.60;;
76377;SDS011;65200;49.500;8.654;2023-06-19T00:18:32;9.13;;;5.45;;
76377;SDS011;65200;49.500;8.654;2023-06-19T00:21:04;7.78;;;4.80;;
76377;SDS011;65200;49.500;8.654;2023-06-19T00:23:31;5.78;;;4.28;;
76377;SDS011;65200;49.500;8.654;2023-06-19T00:25:57;6.85;;;5.30;;
76377;SDS011;65200;49.500;8.654;2023-06-19T00:28:27;6.10;;;4.13;;
76377;SDS011;65200;49.500;8.654;2023-06-19T00:30:53;5.07;;;3.55;;
76377;SDS011;65200;49.500;8.654;2023-06-19T00:33:20;5.22;;;4.28;;
76377;SDS011;65200;49.500;8.654;2023-06-19T00:35:46;7.32;;;3.88;;
76377;SDS011;65200;49.500;8.654;2023-06-19T00:38:13;5.90;;;4.38;;
76377;SDS011;65200;49.500;8.654;2023-06-19T00:40:40;5.03;;;4.30;;
76377;SDS011;65200;49.500;8.654;2023-06-19T00:43:06;5.85;;;4.47;;
76377;SDS011;65200;49.500;8.654;2023-06-19T00:45:34;5.05;;;3.78;;
76377;SDS011;65200;49.500;8.654;2023-06-19T00:48:00;5.70;;;4.28;;
76377;SDS011;65200;49.500;8.654;2023-06-19T00:50:27;6.15;;;4.43;;
76377;SDS011;65200;49.500;8.654;2023-06-19T00:52:54;5.95;;;4.45;;
76377;SDS011;65200;49.500;8.654;2023-06-19T00:55:22;7.18;;;5.03;;
76377;SDS011;65200;49.500;8.654;2023-06-19T00:57:48;4.70;;;3.83;;
76377;SDS011;65200;49.500;8.654;2023-06-19T01:00:17;6.70;;;4.53;;
76377;SDS011;65200;49.500;8.654;2023-06-19T01:02:45;6.80;;;4.90;;
76377;SDS011;65200;49.500;8.654;2023-06-19T01:05:12;7.28;;;4.97;;
76377;SDS011;65200;49.500;8.654;2023-06-19T01:07:41;5.40;;;4.30;;
76377;SDS011;65200;49.500;8.654;2023-06-19T01:10:13;5.93;;;4.22;;
76377;SDS011;65200;49.500;8.654;2023-06-19T01:12:44;6.25;;;5.40;;
76377;SDS011;65200;49.500;8.654;2023-06-19T01:15:17;6.28;;;4.25;;
76377;SDS011;65200;49.500;8.654;2023-06-19T01:17:45;5.55;;;4.13;;
76377;SDS011;65200;49.500;8.654;2023-06-19T01:20:12;7.38;;;4.60;;
76377;SDS011;65200;49.500;8.654;2023-06-19T01:25:09;8.00;;;4.18;;
76377;SDS011;65200;49.500;8.654;2023-06-19T01:27:35;7.70;;;4.57;;
76377;SDS011;65200;49.500;8.654;2023-06-19T01:32:31;6.65;;;4.57;;
76377;SDS011;65200;49.500;8.654;2023-06-19T01:35:03;7.65;;;5.10;;
76377;SDS011;65200;49.500;8.654;2023-06-19T01:37:31;7.60;;;6.00;;
76377;SDS011;65200;49.500;8.654;2023-06-19T01:40:02;5.95;;;4.55;;
76377;SDS011;65200;49.500;8.654;2023-06-19T01:42:31;7.88;;;5.55;;
76377;SDS011;65200;49.500;8.654;2023-06-19T01:45:00;5.88;;;4.90;;
76377;SDS011;65200;49.500;8.654;2023-06-19T01:47:28;6.15;;;4.78;;
76377;SDS011;65200;49.500;8.654;2023-06-19T01:49:54;6.63;;;4.85;;
76377;SDS011;65200;49.500;8.654;2023-06-19T01:52:21;10.20;;;5.25;;
76377;SDS011;65200;49.500;8.654;2023-06-19T01:54:47;8.63;;;5.03;;
76377;SDS011;65200;49.500;8.654;2023-06-19T01:57:15;9.25;;;5.72;;
76377;SDS011;65200;49.500;8.654;2023-06-19T01:59:41;7.05;;;5.43;;
76377;SDS011;65200;49.500;8.654;2023-06-19T02:02:08;6.43;;;4.82;;
76377;SDS011;65200;49.500;8.654;2023-06-19T02:04:34;9.13;;;5.90;;
76377;SDS011;65200;49.500;8.654;2023-06-19T02:07:00;6.28;;;5.68;;
76377;SDS011;65200;49.500;8.654;2023-06-19T02:09:27;7.45;;;5.15;;
76377;SDS011;65200;49.500;8.654;2023-06-19T02:11:53;8.13;;;5.00;;
76377;SDS011;65200;49.500;8.654;2023-06-19T02:14:21;7.63;;;5.57;;
76377;SDS011;65200;49.500;8.654;2023-06-19T02:16:48;8.23;;;5.30;;
76377;SDS011;65200;49.500;8.654;2023-06-19T02:19:14;7.32;;;4.72;;
76377;SDS011;65200;49.500;8.654;2023-06-19T02:21:41;6.93;;;5.43;;
76377;SDS011;65200;49.500;8.654;2023-06-19T02:24:07;7.00;;;4.80;;
76377;SDS011;65200;49.500;8.654;2023-06-19T02:29:01;6.05;;;5.55;;
76377;SDS011;65200;49.500;8.654;2023-06-19T02:31:29;7.45;;;4.38;;
76377;SDS011;65200;49.500;8.654;2023-06-19T02:33:55;5.38;;;4.10;;
76377;SDS011;65200;49.500;8.654;2023-06-19T02:36:22;6.35;;;4.60;;
76377;SDS011;65200;49.500;8.654;2023-06-19T02:38:48;6.70;;;4.78;;
76377;SDS011;65200;49.500;8.654;2023-06-19T02:41:15;5.18;;;3.97;;
76377;SDS011;65200;49.500;8.654;2023-06-19T02:43:43;5.78;;;4.50;;
76377;SDS011;65200;49.500;8.654;2023-06-19T02:46:10;4.55;;;3.97;;
76377;SDS011;65200;49.500;8.654;2023-06-19T02:48:38;5.10;;;3.88;;
76377;SDS011;65200;49.500;8.654;2023-06-19T02:51:04;6.18;;;4.22;;
76377;SDS011;65200;49.500;8.654;2023-06-19T02:53:31;5.63;;;3.88;;
76377;SDS011;65200;49.500;8.654;2023-06-19T02:55:57;6.20;;;4.15;;
76377;SDS011;65200;49.500;8.654;2023-06-19T02:58:23;7.45;;;3.90;;
76377;SDS011;65200;49.500;8.654;2023-06-19T03:00:51;7.40;;;4.38;;
76377;SDS011;65200;49.500;8.654;2023-06-19T03:03:18;4.53;;;4.13;;
76377;SDS011;65200;49.500;8.654;2023-06-19T03:05:46;6.55;;;4.00;;
76377;SDS011;65200;49.500;8.654;2023-06-19T03:08:12;7.72;;;5.18;;
76377;SDS011;65200;49.500;8.654;2023-06-19T03:10:39;7.00;;;3.67;;
76377;SDS011;65200;49.500;8.654;2023-06-19T03:13:05;5.13;;;3.67;;
76377;SDS011;65200;49.500;8.654;2023-06-19T03:15:32;4.93;;;3.88;;
76377;SDS011;65200;49.500;8.654;2023-06-19T03:17:58;6.78;;;3.80;;
76377;SDS011;65200;49.500;8.654;2023-06-19T03:20:28;5.13;;;3.80;;
76377;SDS011;65200;49.500;8.654;2023-06-19T03:22:56;4.20;;;3.67;;
76377;SDS011;65200;49.500;8.654;2023-06-19T03:25:22;5.95;;;4.97;;
76377;SDS011;65200;49.500;8.654;2023-06-19T03:27:48;4.95;;;3.42;;
76377;SDS011;65200;49.500;8.654;2023-06-19T03:30:15;4.80;;;3.30;;
76377;SDS011;65200;49.500;8.654;2023-06-19T03:32:43;5.15;;;3.45;;
76377;SDS011;65200;49.500;8.654;2023-06-19T03:35:10;5.63;;;3.80;;
76377;SDS011;65200;49.500;8.654;2023-06-19T03:37:36;4.38;;;3.20;;
76377;SDS011;65200;49.500;8.654;2023-06-19T03:40:05;3.88;;;2.70;;
76377;SDS011;65200;49.500;8.654;2023-06-19T03:42:34;4.38;;;2.83;;
76377;SDS011;65200;49.500;8.654;2023-06-19T03:45:00;3.67;;;2.53;;
76377;SDS011;65200;49.500;8.654;2023-06-19T03:47:27;3.45;;;2.67;;
76377;SDS011;65200;49.500;8.654;2023-06-19T03:49:53;3.15;;;2.30;;
76377;SDS011;65200;49.500;8.654;2023-06-19T03:52:20;3.03;;;2.22;;
76377;SDS011;65200;49.500;8.654;2023-06-19T03:54:46;3.10;;;2.58;;
76377;SDS011;65200;49.500;8.654;2023-06-19T03:57:14;3.97;;;2.60;;
76377;SDS011;65200;49.500;8.654;2023-06-19T03:59:40;3.22;;;2.17;;
76377;SDS011;65200;49.500;8.654;2023-06-19T04:02:07;2.83;;;2.33;;
76377;SDS011;65200;49.500;8.654;2023-06-19T04:04:33;4.30;;;2.22;;
76377;SDS011;65200;49.500;8.654;2023-06-19T04:06:59;3.60;;;2.38;;
76377;SDS011;65200;49.500;8.654;2023-06-19T04:09:26;2.72;;;2.20;;
76377;SDS011;65200;49.500;8.654;2023-06-19T04:11:52;4.03;;;2.15;;
76377;SDS011;65200;49.500;8.654;2023-06-19T04:14:20;3.33;;;2.00;;
76377;SDS011;65200;49.500;8.654;2023-06-19T04:16:48;3.28;;;2.97;;
76377;SDS011;65200;49.500;8.654;2023-06-19T04:19:14;2.03;;;1.52;;
76377;SDS011;65200;49.500;8.654;2023-06-19T04:21:41;2.50;;;1.95;;
76377;SDS011;65200;49.500;8.654;2023-06-19T04:24:07;3.75;;;2.63;;
76377;SDS011;65200;49.500;8.654;2023-06-19T04:26:34;3.22;;;2.10;;
76377;SDS011;65200;49.500;8.654;2023-06-19T04:29:00;6.15;;;2.75;;
76377;SDS011;65200;49.500;8.654;2023-06-19T04:31:28;2.95;;;2.33;;
76377;SDS011;65200;49.500;8.654;2023-06-19T04:33:55;4.28;;;2.88;;
76377;SDS011;65200;49.500;8.654;2023-06-19T04:36:22;2.67;;;2.13;;
76377;SDS011;65200;49.500;8.654;2023-06-19T04:38:48;2.67;;;2.03;;
76377;SDS011;65200;49.500;8.654;2023-06-19T04:41:16;3.53;;;2.42;;
76377;SDS011;65200;49.500;8.654;2023-06-19T04:43:42;4.18;;;2.65;;
76377;SDS011;65200;49.500;8.654;2023-06-19T04:46:09;6.03;;;2.38;;
76377;SDS011;65200;49.500;8.654;2023-06-19T04:48:37;3.33;;;2.60;;
76377;SDS011;65200;49.500;8.654;2023-06-19T04:51:04;5.68;;;3.33;;
76377;SDS011;65200;49.500;8.654;2023-06-19T04:53:31;2.85;;;2.03;;
76377;SDS011;65200;49.500;8.654;2023-06-19T04:55:57;5.03;;;3.00;;
76377;SDS011;65200;49.500;8.654;2023-06-19T04:58:24;3.20;;;2.40;;
76377;SDS011;65200;49.500;8.654;2023-06-19T05:00:50;2.70;;;1.95;;
76377;SDS011;65200;49.500;8.654;2023-06-19T05:03:17;3.28;;;2.35;;
76377;SDS011;65200;49.500;8.654;2023-06-19T05:05:46;2.40;;;1.83;;
76377;SDS011;65200;49.500;8.654;2023-06-19T05:08:13;3.03;;;2.72;;
76377;SDS011;65200;49.500;8.654;2023-06-19T05:10:39;2.70;;;2.22;;
76377;SDS011;65200;49.500;8.654;2023-06-19T05:13:06;3.88;;;2.17;;
76377;SDS011;65200;49.500;8.654;2023-06-19T05:15:32;3.10;;;2.20;;
76377;SDS011;65200;49.500;8.654;2023-06-19T05:17:58;3.17;;;2.33;;
76377;SDS011;65200;49.500;8.654;2023-06-19T05:20:25;3.45;;;2.30;;
76377;SDS011;65200;49.500;8.654;2023-06-19T05:22:53;3.90;;;2.40;;
76377;SDS011;65200;49.500;8.654;2023-06-19T05:25:19;3.00;;;2.10;;
76377;SDS011;65200;49.500;8.654;2023-06-19T05:27:46;3.22;;;2.42;;
76377;SDS011;65200;49.500;8.654;2023-06-19T05:30:12;5.47;;;2.72;;
76377;SDS011;65200;49.500;8.654;2023-06-19T05:32:39;2.88;;;2.15;;
76377;SDS011;65200;49.500;8.654;2023-06-19T05:35:05;3.78;;;2.75;;
76377;SDS011;65200;49.500;8.654;2023-06-19T05:37:32;4.00;;;2.50;;
76377;SDS011;65200;49.500;8.654;2023-06-19T05:40:00;2.85;;;2.15;;
76377;SDS011;65200;49.500;8.654;2023-06-19T05:42:27;3.00;;;2.17;;
76377;SDS011;65200;49.500;8.654;2023-06-19T05:44:53;3.38;;;2.22;;
76377;SDS011;65200;49.500;8.654;2023-06-19T05:47:19;2.92;;;1.98;;
76377;SDS011;65200;49.500;8.654;2023-06-19T05:49:46;3.38;;;2.20;;
76377;SDS011;65200;49.500;8.654;2023-06-19T05:52:13;3.63;;;2.45;;
76377;SDS011;65200;49.500;8.654;2023-06-19T05:54:40;3.17;;;2.33;;
76377;SDS011;65200;49.500;8.654;2023-06-19T05:57:07;3.28;;;2.55;;
76377;SDS011;65200;49.500;8.654;2023-06-19T05:59:34;3.67;;;2.72;;
76377;SDS011;65200;49.500;8.654;2023-06-19T06:02:01;3.30;;;2.45;;
76377;SDS011;65200;49.500;8.654;2023-06-19T06:04:28;4.97;;;2.92;;
76377;SDS011;65200;49.500;8.654;2023-06-19T06:06:55;4.90;;;2.45;;
76377;SDS011;65200;49.500;8.654;2023-06-19T06:09:22;2.40;;;1.90;;
76377;SDS011;65200;49.500;8.654;2023-06-19T06:11:48;3.03;;;2.60;;
76377;SDS011;65200;49.500;8.654;2023-06-19T06:14:16;4.00;;;3.30;;
76377;SDS011;65200;49.500;8.654;2023-06-19T06:16:43;3.67;;;2.60;;
76377;SDS011;65200;49.500;8.654;2023-06-19T06:19:09;3.95;;;2.15;;
76377;SDS011;65200;49.500;8.654;2023-06-19T06:21:36;3.40;;;2.35;;
76377;SDS011;65200;49.500;8.654;2023-06-19T06:24:02;3.80;;;2.53;;
76377;SDS011;65200;49.500;8.654;2023-06-19T06:26:29;3.33;;;2.35;;
76377;SDS011;65200;49.500;8.654;2023-06-19T06:28:56;3.13;;;2.53;;
76377;SDS011;65200;49.500;8.654;2023-06-19T06:31:24;4.13;;;3.13;;
76377;SDS011;65200;49.500;8.654;2023-06-19T06:33:50;4.57;;;2.75;;
76377;SDS011;65200;49.500;8.654;2023-06-19T06:36:17;3.30;;;2.65;;
76377;SDS011;65200;49.500;8.654;2023-06-19T06:38:44;3.22;;;2.38;;
76377;SDS011;65200;49.500;8.654;2023-06-19T06:41:10;5.15;;;2.58;;
76377;SDS011;65200;49.500;8.654;2023-06-19T06:43:37;4.13;;;2.67;;
76377;SDS011;65200;49.500;8.654;2023-06-19T06:46:05;3.70;;;2.58;;
76377;SDS011;65200;49.500;8.654;2023-06-19T06:48:33;3.08;;;2.20;;
76377;SDS011;65200;49.500;8.654;2023-06-19T06:50:59;4.50;;;2.80;;
76377;SDS011;65200;49.500;8.654;2023-06-19T06:53:26;5.22;;;2.90;;
76377;SDS011;65200;49.500;8.654;2023-06-19T06:58:20;3.45;;;2.85;;
76377;SDS011;65200;49.500;8.654;2023-06-19T07:00:46;2.92;;;2.10;;
76377;SDS011;65200;49.500;8.654;2023-06-19T07:03:13;3.75;;;3.17;;
76377;SDS011;65200;49.500;8.654;2023-06-19T07:05:41;6.93;;;2.88;;
76377;SDS011;65200;49.500;8.654;2023-06-19T07:08:07;3.80;;;3.40;;
76377;SDS011;65200;49.500;8.654;2023-06-19T07:10:34;10.05;;;2.63;;
76377;SDS011;65200;49.500;8.654;2023-06-19T07:13:00;4.32;;;2.92;;
76377;SDS011;65200;49.500;8.654;2023-06-19T07:15:27;5.00;;;2.85;;
76377;SDS011;65200;49.500;8.654;2023-06-19T07:17:53;4.32;;;2.60;;
76377;SDS011;65200;49.500;8.654;2023-06-19T07:20:20;4.78;;;2.95;;
76377;SDS011;65200;49.500;8.654;2023-06-19T07:22:50;3.85;;;2.83;;
76377;SDS011;65200;49.500;8.654;2023-06-19T07:25:17;4.32;;;2.78;;
76377;SDS011;65200;49.500;8.654;2023-06-19T07:27:43;4.50;;;2.97;;
76377;SDS011;65200;49.500;8.654;2023-06-19T07:30:10;5.13;;;3.88;;
76377;SDS011;65200;49.500;8.654;2023-06-19T07:32:37;4.75;;;2.67;;
76377;SDS011;65200;49.500;8.654;2023-06-19T07:35:04;3.50;;;2.95;;
76377;SDS011;65200;49.500;8.654;2023-06-19T07:37:32;3.50;;;2.58;;
76377;SDS011;65200;49.500;8.654;2023-06-19T07:40:00;3.65;;;2.83;;
76377;SDS011;65200;49.500;8.654;2023-06-19T07:42:26;3.85;;;3.08;;
76377;SDS011;65200;49.500;8.654;2023-06-19T07:44:53;3.45;;;2.85;;
76377;SDS011;65200;49.500;8.654;2023-06-19T07:47:19;4.03;;;3.05;;
76377;SDS011;65200;49.500;8.654;2023-06-19T07:49:46;3.60;;;2.90;;
76377;SDS011;65200;49.500;8.654;2023-06-19T07:52:13;5.10;;;3.40;;
76377;SDS011;65200;49.500;8.654;2023-06-19T07:54:47;4.05;;;3.00;;
76377;SDS011;65200;49.500;8.654;2023-06-19T07:57:17;4.47;;;3.60;;
76377;SDS011;65200;49.500;8.654;2023-06-19T07:59:44;3.47;;;3.05;;
76377;SDS011;65200;49.500;8.654;2023-06-19T08:02:10;3.58;;;3.05;;
76377;SDS011;65200;49.500;8.654;2023-06-19T08:04:37;4.18;;;3.33;;
76377;SDS011;65200;49.500;8.654;2023-06-19T08:07:03;5.47;;;3.13;;
76377;SDS011;65200;49.500;8.654;2023-06-19T08:09:30;4.60;;;3.42;;
76377;SDS011;65200;49.500;8.654;2023-06-19T08:11:57;4.75;;;3.85;;
76377;SDS011;65200;49.500;8.654;2023-06-19T08:14:25;6.30;;;3.67;;
76377;SDS011;65200;49.500;8.654;2023-06-19T08:16:51;4.93;;;3.40;;
76377;SDS011;65200;49.500;8.654;2023-06-19T08:19:18;6.05;;;4.07;;
76377;SDS011;65200;49.500;8.654;2023-06-19T08:21:44;5.63;;;3.58;;
76377;SDS011;65200;49.500;8.654;2023-06-19T08:24:11;4.80;;;3.45;;
76377;SDS011;65200;49.500;8.654;2023-06-19T08:26:37;3.55;;;2.53;;
76377;SDS011;65200;49.500;8.654;2023-06-19T08:29:04;7.93;;;3.65;;
76377;SDS011;65200;49.500;8.654;2023-06-19T08:31:32;4.68;;;3.20;;
76377;SDS011;65200;49.500;8.654;2023-06-19T08:33:59;4.60;;;3.42;;
76377;SDS011;65200;49.500;8.654;2023-06-19T08:36:25;4.90;;;3.45;;
76377;SDS011;65200;49.500;8.654;2023-06-19T08:38:52;5.47;;;3.35;;
76377;SDS011;65200;49.500;8.654;2023-06-19T08:41:18;4.82;;;3.42;;
76377;SDS011;65200;49.500;8.654;2023-06-19T08:43:45;5.65;;;3.70;;
76377;SDS011;65200;49.500;8.654;2023-06-19T08:46:15;4.28;;;2.95;;
76377;SDS011;65200;49.500;8.654;2023-06-19T08:48:43;4.80;;;2.92;;
76377;SDS011;65200;49.500;8.654;2023-06-19T08:51:12;4.45;;;3.25;;
76377;SDS011;65200;49.500;8.654;2023-06-19T08:53:43;4.65;;;3.63;;
76377;SDS011;65200;49.500;8.654;2023-06-19T08:56:11;4.90;;;3.60;;
76377;SDS011;65200;49.500;8.654;2023-06-19T08:58:38;4.05;;;3.28;;
76377;SDS011;65200;49.500;8.654;2023-06-19T09:01:05;5.15;;;3.45;;
76377;SDS011;65200;49.500;8.654;2023-06-19T09:03:31;6.15;;;3.63;;
76377;SDS011;65200;49.500;8.654;2023-06-19T09:06:01;4.47;;;4.07;;
76377;SDS011;65200;49.500;8.654;2023-06-19T09:08:29;5.25;;;3.50;;
76377;SDS011;65200;49.500;8.654;2023-06-19T09:10:56;4.95;;;4.03;;
76377;SDS011;65200;49.500;8.654;2023-06-19T09:13:23;5.35;;;3.80;;
76377;SDS011;65200;49.500;8.654;2023-06-19T09:15:57;4.32;;;3.30;;
76377;SDS011;65200;49.500;8.654;2023-06-19T09:18:25;4.28;;;3.15;;
76377;SDS011;65200;49.500;8.654;2023-06-19T09:23:20;5.35;;;3.33;;
76377;SDS011;65200;49.500;8.654;2023-06-19T09:25:47;4.50;;;3.78;;
76377;SDS011;65200;49.500;8.654;2023-06-19T09:28:18;4.97;;;4.07;;
76377;SDS011;65200;49.500;8.654;2023-06-19T09:30:55;6.38;;;3.88;;
76377;SDS011;65200;49.500;8.654;2023-06-19T09:33:24;5.00;;;4.50;;
76377;SDS011;65200;49.500;8.654;2023-06-19T09:35:52;4.47;;;3.97;;
76377;SDS011;65200;49.500;8.654;2023-06-19T09:38:22;4.82;;;3.65;;
76377;SDS011;65200;49.500;8.654;2023-06-19T09:40:51;4.35;;;3.47;;
76377;SDS011;65200;49.500;8.654;2023-06-19T09:43:18;6.00;;;4.20;;
76377;SDS011;65200;49.500;8.654;2023-06-19T09:45:48;4.70;;;3.65;;
76377;SDS011;65200;49.500;8.654;2023-06-19T09:48:18;5.70;;;3.80;;
76377;SDS011;65200;49.500;8.654;2023-06-19T09:50:47;4.60;;;3.90;;
76377;SDS011;65200;49.500;8.654;2023-06-19T09:53:16;4.20;;;3.25;;
76377;SDS011;65200;49.500;8.654;2023-06-19T09:55:46;4.35;;;3.75;;
76377;SDS011;65200;49.500;8.654;2023-06-19T09:58:15;4.93;;;3.47;;
76377;SDS011;65200;49.500;8.654;2023-06-19T10:03:11;5.63;;;4.15;;
76377;SDS011;65200;49.500;8.654;2023-06-19T10:05:38;4.90;;;4.40;;
76377;SDS011;65200;49.500;8.654;2023-06-19T10:08:05;5.53;;;3.88;;
76377;SDS011;65200;49.500;8.654;2023-06-19T10:10:32;5.05;;;3.97;;
76377;SDS011;65200;49.500;8.654;2023-06-19T10:13:10;5.47;;;4.15;;
76377;SDS011;65200;49.500;8.654;2023-06-19T10:15:40;4.63;;;3.53;;
76377;SDS011;65200;49.500;8.654;2023-06-19T10:18:07;5.55;;;4.68;;
76377;SDS011;65200;49.500;8.654;2023-06-19T10:20:34;9.15;;;4.30;;
76377;SDS011;65200;49.500;8.654;2023-06-19T10:23:04;4.85;;;3.60;;
76377;SDS011;65200;49.500;8.654;2023-06-19T10:25:33;8.60;;;4.70;;
76377;SDS011;65200;49.500;8.654;2023-06-19T10:28:02;5.70;;;3.90;;
76377;SDS011;65200;49.500;8.654;2023-06-19T10:30:31;4.40;;;3.58;;
76377;SDS011;65200;49.500;8.654;2023-06-19T10:32:59;5.30;;;3.35;;
76377;SDS011;65200;49.500;8.654;2023-06-19T10:35:29;5.60;;;3.58;;
76377;SDS011;65200;49.500;8.654;2023-06-19T10:37:55;7.10;;;3.95;;
76377;SDS011;65200;49.500;8.654;2023-06-19T10:40:22;4.53;;;3.83;;
76377;SDS011;65200;49.500;8.654;2023-06-19T10:42:48;6.07;;;4.35;;
76377;SDS011;65200;49.500;8.654;2023-06-19T10:45:16;5.25;;;4.03;;
76377;SDS011;65200;49.500;8.654;2023-06-19T10:47:43;4.55;;;3.60;;
76377;SDS011;65200;49.500;8.654;2023-06-19T10:50:11;5.20;;;4.63;;
76377;SDS011;65200;49.500;8.654;2023-06-19T10:52:41;7.40;;;3.42;;
76377;SDS011;65200;49.500;8.654;2023-06-19T10:55:09;4.05;;;3.38;;
76377;SDS011;65200;49.500;8.654;2023-06-19T10:57:37;4.53;;;3.28;;
76377;SDS011;65200;49.500;8.654;2023-06-19T11:00:05;4.13;;;3.70;;
76377;SDS011;65200;49.500;8.654;2023-06-19T11:02:38;4.35;;;3.42;;
76377;SDS011;65200;49.500;8.654;2023-06-19T11:05:08;4.88;;;3.80;;
76377;SDS011;65200;49.500;8.654;2023-06-19T11:07:34;4.82;;;4.32;;
76377;SDS011;65200;49.500;8.654;2023-06-19T11:10:01;4.35;;;3.13;;
76377;SDS011;65200;49.500;8.654;2023-06-19T11:14:54;4.18;;;3.72;;
76377;SDS011;65200;49.500;8.654;2023-06-19T11:17:21;4.68;;;4.10;;
76377;SDS011;65200;49.500;8.654;2023-06-19T11:19:50;4.50;;;3.45;;
76377;SDS011;65200;49.500;8.654;2023-06-19T11:22:17;3.97;;;3.35;;
76377;SDS011;65200;49.500;8.654;2023-06-19T11:24:43;4.38;;;3.33;;
76377;SDS011;65200;49.500;8.654;2023-06-19T11:27:20;4.10;;;3.30;;
76377;SDS011;65200;49.500;8.654;2023-06-19T11:29:54;4.03;;;3.17;;
76377;SDS011;65200;49.500;8.654;2023-06-19T11:32:21;4.80;;;3.65;;
76377;SDS011;65200;49.500;8.654;2023-06-19T11:34:51;4.13;;;3.38;;
76377;SDS011;65200;49.500;8.654;2023-06-19T11:37:19;4.63;;;3.80;;
76377;SDS011;65200;49.500;8.654;2023-06-19T11:39:46;5.10;;;3.28;;
76377;SDS011;65200;49.500;8.654;2023-06-19T11:42:13;4.00;;;3.25;;
76377;SDS011;65200;49.500;8.654;2023-06-19T11:47:31;4.18;;;3.15;;
76377;SDS011;65200;49.500;8.654;2023-06-19T11:49:59;4.00;;;3.22;;
76377;SDS011;65200;49.500;8.654;2023-06-19T11:52:26;4.65;;;3.30;;
76377;SDS011;65200;49.500;8.654;2023-06-19T11:54:52;5.25;;;4.15;;
76377;SDS011;65200;49.500;8.654;2023-06-19T11:57:19;4.78;;;3.70;;
76377;SDS011;65200;49.500;8.654;2023-06-19T11:59:45;4.93;;;3.42;;
76377;SDS011;65200;49.500;8.654;2023-06-19T12:02:12;3.72;;;3.03;;
76377;SDS011;65200;49.500;8.654;2023-06-19T12:04:38;4.85;;;3.30;;
76377;SDS011;65200;49.500;8.654;2023-06-19T12:07:06;4.57;;;3.30;;
76377;SDS011;65200;49.500;8.654;2023-06-19T12:09:33;5.45;;;3.83;;
76377;SDS011;65200;49.500;8.654;2023-06-19T12:11:59;3.83;;;3.30;;
76377;SDS011;65200;49.500;8.654;2023-06-19T12:14:26;4.22;;;2.60;;
76377;SDS011;65200;49.500;8.654;2023-06-19T12:16:52;4.55;;;3.65;;
76377;SDS011;65200;49.500;8.654;2023-06-19T12:19:19;4.47;;;3.28;;
76377;SDS011;65200;49.500;8.654;2023-06-19T12:21:46;4.28;;;3.13;;
76377;SDS011;65200;49.500;8.654;2023-06-19T12:24:13;3.92;;;3.15;;
76377;SDS011;65200;49.500;8.654;2023-06-19T12:26:40;3.42;;;3.10;;
76377;SDS011;65200;49.500;8.654;2023-06-19T12:29:07;4.05;;;3.58;;
76377;SDS011;65200;49.500;8.654;2023-06-19T12:31:33;4.10;;;3.70;;
76377;SDS011;65200;49.500;8.654;2023-06-19T12:34:00;6.00;;;3.20;;
76377;SDS011;65200;49.500;8.654;2023-06-19T12:36:27;3.72;;;3.03;;
76377;SDS011;65200;49.500;8.654;2023-06-19T12:38:53;9.07;;;4.22;;
76377;SDS011;65200;49.500;8.654;2023-06-19T12:41:21;3.60;;;2.97;;
76377;SDS011;65200;49.500;8.654;2023-06-19T12:43:48;4.15;;;3.13;;
76377;SDS011;65200;49.500;8.654;2023-06-19T12:46:15;4.03;;;3.17;;
76377;SDS011;65200;49.500;8.654;2023-06-19T12:48:41;4.43;;;3.47;;
76377;SDS011;65200;49.500;8.654;2023-06-19T12:51:08;4.03;;;3.58;;
76377;SDS011;65200;49.500;8.654;2023-06-19T12:53:34;3.60;;;2.92;;
76377;SDS011;65200;49.500;8.654;2023-06-19T12:56:01;3.80;;;2.95;;
76377;SDS011;65200;49.500;8.654;2023-06-19T12:58:29;3.63;;;3.20;;
76377;SDS011;65200;49.500;8.654;2023-06-19T13:00:55;4.22;;;2.90;;
76377;SDS011;65200;49.500;8.654;2023-06-19T13:03:22;4.10;;;2.85;;
76377;SDS011;65200;49.500;8.654;2023-06-19T13:05:48;4.38;;;3.95;;
76377;SDS011;65200;49.500;8.654;2023-06-19T13:08:15;4.72;;;3.05;;
76377;SDS011;65200;49.500;8.654;2023-06-19T13:10:41;4.60;;;3.28;;
76377;SDS011;65200;49.500;8.654;2023-06-19T13:13:08;4.15;;;3.38;;
76377;SDS011;65200;49.500;8.654;2023-06-19T13:15:36;4.18;;;3.13;;
76377;SDS011;65200;49.500;8.654;2023-06-19T13:18:03;3.30;;;2.53;;
76377;SDS011;65200;49.500;8.654;2023-06-19T13:20:29;5.07;;;3.38;;
76377;SDS011;65200;49.500;8.654;2023-06-19T13:25:23;4.05;;;2.80;;
76377;SDS011;65200;49.500;8.654;2023-06-19T13:27:49;3.58;;;2.72;;
76377;SDS011;65200;49.500;8.654;2023-06-19T13:30:16;4.25;;;3.00;;
76377;SDS011;65200;49.500;8.654;2023-06-19T13:32:43;4.95;;;3.08;;
76377;SDS011;65200;49.500;8.654;2023-06-19T13:35:10;3.72;;;2.95;;
76377;SDS011;65200;49.500;8.654;2023-06-19T13:37:37;5.30;;;3.78;;
76377;SDS011;65200;49.500;8.654;2023-06-19T13:40:05;4.30;;;2.88;;
76377;SDS011;65200;49.500;8.654;2023-06-19T13:42:32;3.35;;;2.85;;
76377;SDS011;65200;49.500;8.654;2023-06-19T13:45:00;3.40;;;2.97;;
76377;SDS011;65200;49.500;8.654;2023-06-19T13:47:27;3.80;;;3.40;;
76377;SDS011;65200;49.500;8.654;2023-06-19T13:49:55;4.03;;;3.00;;
76377;SDS011;65200;49.500;8.654;2023-06-19T13:52:21;4.47;;;3.40;;
76377;SDS011;65200;49.500;8.654;2023-06-19T13:54:48;4.03;;;3.10;;
76377;SDS011;65200;49.500;8.654;2023-06-19T13:57:14;3.88;;;3.00;;
76377;SDS011;65200;49.500;8.654;2023-06-19T13:59:41;5.00;;;3.30;;
76377;SDS011;65200;49.500;8.654;2023-06-19T14:04:35;3.90;;;3.35;;
76377;SDS011;65200;49.500;8.654;2023-06-19T14:07:03;3.08;;;2.78;;
76377;SDS011;65200;49.500;8.654;2023-06-19T14:09:30;4.95;;;2.95;;
76377;SDS011;65200;49.500;8.654;2023-06-19T14:11:57;5.00;;;3.25;;
76377;SDS011;65200;49.500;8.654;2023-06-19T14:14:24;4.53;;;2.92;;
76377;SDS011;65200;49.500;8.654;2023-06-19T14:16:51;5.43;;;3.60;;
76377;SDS011;65200;49.500;8.654;2023-06-19T14:19:18;4.20;;;3.15;;
76377;SDS011;65200;49.500;8.654;2023-06-19T14:24:13;3.92;;;3.22;;
76377;SDS011;65200;49.500;8.654;2023-06-19T14:26:39;3.75;;;2.97;;
76377;SDS011;65200;49.500;8.654;2023-06-19T14:31:33;4.45;;;3.03;;
76377;SDS011;65200;49.500;8.654;2023-06-19T14:33:59;3.42;;;2.90;;
76377;SDS011;65200;49.500;8.654;2023-06-19T14:36:26;3.38;;;3.03;;
76377;SDS011;65200;49.500;8.654;2023-06-19T14:38:52;5.85;;;3.30;;
76377;SDS011;65200;49.500;8.654;2023-06-19T14:41:20;3.42;;;2.90;;
76377;SDS011;65200;49.500;8.654;2023-06-19T14:43:47;3.90;;;2.80;;
76377;SDS011;65200;49.500;8.654;2023-06-19T14:46:14;4.32;;;2.75;;
76377;SDS011;65200;49.500;8.654;2023-06-19T14:48:40;3.92;;;3.53;;
76377;SDS011;65200;49.500;8.654;2023-06-19T14:51:07;3.67;;;2.85;;
76377;SDS011;65200;49.500;8.654;2023-06-19T14:53:35;4.97;;;3.13;;
76377;SDS011;65200;49.500;8.654;2023-06-19T14:56:02;3.65;;;3.00;;
76377;SDS011;65200;49.500;8.654;2023-06-19T14:58:29;4.57;;;3.50;;
76377;SDS011;65200;49.500;8.654;2023-06-19T15:00:56;4.00;;;3.10;;
76377;SDS011;65200;49.500;8.654;2023-06-19T15:03:23;4.30;;;2.90;;
76377;SDS011;65200;49.500;8.654;2023-06-19T15:05:49;3.75;;;3.10;;
76377;SDS011;65200;49.500;8.654;2023-06-19T15:08:16;4.28;;;3.30;;
76377;SDS011;65200;49.500;8.654;2023-06-19T15:10:46;4.25;;;3.05;;
76377;SDS011;65200;49.500;8.654;2023-06-19T15:13:13;3.85;;;3.08;;
76377;SDS011;65200;49.500;8.654;2023-06-19T15:15:42;3.63;;;3.22;;
76377;SDS011;65200;49.500;8.654;2023-06-19T15:18:08;4.32;;;3.67;;